createdAt,value
2022-12-25T00:01:11.453Z,82.93
2022-12-25T00:03:38.347Z,82.86
2022-12-25T00:06:05.174Z,82.52
2022-12-25T00:08:31.792Z,82.84
2022-12-25T00:11:01.915Z,82.77
2022-12-25T00:13:28.474Z,82.81
2022-12-25T00:15:54.936Z,82.74
2022-12-25T00:18:21.516Z,82.78
2022-12-25T00:21:00.894Z,82.36
2022-12-25T00:23:27.339Z,82.31
2022-12-25T00:25:53.766Z,81.98
2022-12-25T00:28:20.248Z,82.18
2022-12-25T00:30:46.816Z,82.52
2022-12-25T00:33:13.247Z,82.32
2022-12-25T00:35:39.721Z,82.37
2022-12-25T00:38:06.180Z,82.28
2022-12-25T00:40:32.612Z,82.54
2022-12-25T00:42:59.206Z,82.44
2022-12-25T00:45:25.689Z,82.44
2022-12-25T00:47:52.159Z,82.78
2022-12-25T00:50:18.641Z,83.00
2022-12-25T00:52:45.062Z,82.78
2022-12-25T00:55:11.515Z,82.77
2022-12-25T00:57:37.967Z,83.42
2022-12-25T01:00:04.947Z,83.32
2022-12-25T01:02:31.504Z,83.13
2022-12-25T01:04:58.071Z,82.94
2022-12-25T01:07:25.180Z,83.15
2022-12-25T01:10:10.229Z,83.47
2022-12-25T01:12:37.528Z,83.11
2022-12-25T01:15:04.943Z,83.16
2022-12-25T01:17:31.518Z,83.12
2022-12-25T01:19:57.957Z,82.97
2022-12-25T01:22:24.415Z,83.18
2022-12-25T01:24:51.050Z,82.49
2022-12-25T01:27:17.734Z,82.82
2022-12-25T01:29:45.339Z,82.48
2022-12-25T01:32:12.043Z,82.32
2022-12-25T01:34:38.708Z,82.07
2022-12-25T01:37:05.117Z,82.02
2022-12-25T01:39:32.151Z,82.33
2022-12-25T01:41:58.568Z,82.04
2022-12-25T01:44:37.275Z,82.63
2022-12-25T01:47:04.237Z,82.08
2022-12-25T01:49:30.849Z,82.18
2022-12-25T01:51:58.165Z,82.31
2022-12-25T01:54:25.971Z,82.12
2022-12-25T01:56:52.636Z,82.47
2022-12-25T01:59:19.883Z,82.33
2022-12-25T02:01:46.741Z,82.16
2022-12-25T02:04:15.038Z,82.10
2022-12-25T02:06:41.648Z,82.42
2022-12-25T02:09:08.066Z,82.37
2022-12-25T02:11:53.330Z,82.16
2022-12-25T02:14:20.460Z,82.41
2022-12-25T02:16:57.580Z,82.28
2022-12-25T02:19:38.529Z,82.11
2022-12-25T02:22:24.036Z,82.52
2022-12-25T02:25:08.887Z,82.69
2022-12-25T02:27:44.400Z,82.69
2022-12-25T02:30:11.441Z,83.25
2022-12-25T02:32:43.414Z,82.62
2022-12-25T02:35:10.042Z,82.81
2022-12-25T02:37:48.862Z,82.18
2022-12-25T02:40:28.454Z,81.81
2022-12-25T02:43:17.860Z,81.74
2022-12-25T02:46:04.754Z,81.95
2022-12-25T02:48:54.096Z,82.38
2022-12-25T02:51:39.409Z,82.15
2022-12-25T02:54:26.723Z,82.34
2022-12-25T02:57:11.765Z,82.36
2022-12-25T02:59:57.116Z,82.51
2022-12-25T03:02:42.116Z,82.89
2022-12-25T03:05:28.252Z,82.90
2022-12-25T03:07:54.764Z,83.38
2022-12-25T03:10:40.108Z,82.98
2022-12-25T03:13:09.249Z,83.04
2022-12-25T03:15:54.350Z,83.42
2022-12-25T03:18:24.358Z,83.15
2022-12-25T03:21:09.990Z,82.69
2022-12-25T03:23:55.633Z,82.87
2022-12-25T03:26:40.703Z,82.56
2022-12-25T03:29:07.300Z,82.75
2022-12-25T03:31:44.808Z,82.54
2022-12-25T03:34:49.100Z,82.41
2022-12-25T03:37:46.752Z,82.49
2022-12-25T03:40:35.021Z,82.29
2022-12-25T03:43:40.491Z,82.62
2022-12-25T03:46:26.676Z,82.72
2022-12-25T03:49:13.316Z,82.68
2022-12-25T03:51:58.555Z,82.48
2022-12-25T03:54:44.189Z,82.54
2022-12-25T03:57:29.322Z,82.36
2022-12-25T04:00:14.379Z,82.69
2022-12-25T04:02:59.578Z,82.88
2022-12-25T04:05:45.020Z,82.92
2022-12-25T04:08:30.021Z,82.99
2022-12-25T04:11:15.117Z,83.13
2022-12-25T04:14:00.143Z,82.89
2022-12-25T04:16:45.318Z,83.07
2022-12-25T04:19:30.489Z,83.19
2022-12-25T04:22:15.604Z,83.13
2022-12-25T04:25:00.926Z,82.98
2022-12-25T04:27:46.044Z,82.95
2022-12-25T04:30:31.208Z,83.35
2022-12-25T04:33:16.716Z,83.42
2022-12-25T04:36:05.387Z,83.12
2022-12-25T04:38:31.850Z,82.98
2022-12-25T04:40:58.950Z,83.27
2022-12-25T04:43:25.640Z,83.40
2022-12-25T04:45:55.496Z,83.69
2022-12-25T04:48:22.095Z,83.92
2022-12-25T04:50:48.589Z,84.00
2022-12-25T04:53:15.476Z,84.13
2022-12-25T04:55:41.909Z,84.18
2022-12-25T04:58:08.396Z,84.19
2022-12-25T05:00:34.918Z,83.87
2022-12-25T05:03:01.526Z,83.99
2022-12-25T05:05:28.084Z,83.73
2022-12-25T05:07:54.518Z,83.98
2022-12-25T05:10:20.959Z,83.75
2022-12-25T05:12:47.376Z,83.62
2022-12-25T05:15:13.930Z,83.80
2022-12-25T05:17:40.366Z,83.81
2022-12-25T05:20:07.044Z,83.59
2022-12-25T05:22:33.707Z,83.85
2022-12-25T05:25:00.127Z,83.69
2022-12-25T05:27:26.565Z,83.97
2022-12-25T05:29:53.094Z,83.37
2022-12-25T05:32:19.525Z,83.51
2022-12-25T05:34:45.948Z,83.38
2022-12-25T05:37:12.576Z,83.01
2022-12-25T05:39:39.031Z,82.92
2022-12-25T05:42:05.488Z,82.78
2022-12-25T05:44:31.937Z,82.61
2022-12-25T05:46:58.472Z,82.38
2022-12-25T05:49:25.037Z,82.94
2022-12-25T05:51:51.504Z,82.71
2022-12-25T05:54:17.954Z,82.65
2022-12-25T05:56:44.374Z,82.82
2022-12-25T05:59:10.895Z,83.18
2022-12-25T06:01:37.426Z,83.13
2022-12-25T06:04:08.518Z,83.20
2022-12-25T06:06:38.804Z,83.29
2022-12-25T06:09:05.320Z,83.28
2022-12-25T06:11:31.793Z,83.29
2022-12-25T06:13:58.233Z,83.35
2022-12-25T06:16:24.670Z,83.59
2022-12-25T06:18:54.237Z,83.34
2022-12-25T06:21:20.929Z,83.35
2022-12-25T06:23:47.494Z,83.22
2022-12-25T06:26:15.009Z,82.95
2022-12-25T06:28:41.654Z,82.99
2022-12-25T06:31:09.057Z,82.95
2022-12-25T06:33:35.813Z,83.14
2022-12-25T06:36:09.128Z,83.28
2022-12-25T06:38:35.659Z,83.39
2022-12-25T06:41:10.455Z,83.24
2022-12-25T06:43:37.152Z,83.37
2022-12-25T06:46:10.810Z,83.19
2022-12-25T06:48:37.717Z,83.05
2022-12-25T06:51:04.497Z,83.18
2022-12-25T06:53:37.082Z,83.25
2022-12-25T06:56:06.649Z,83.19
2022-12-25T06:58:33.156Z,83.20
2022-12-25T07:00:59.690Z,83.08
2022-12-25T07:03:26.813Z,83.13
2022-12-25T07:05:53.572Z,83.13
2022-12-25T07:08:20.002Z,83.06
2022-12-25T07:10:46.449Z,82.91
2022-12-25T07:13:12.937Z,83.24
2022-12-25T07:15:39.508Z,82.75
2022-12-25T07:18:05.934Z,82.73
2022-12-25T07:20:32.428Z,82.98
2022-12-25T07:22:58.916Z,83.00
2022-12-25T07:25:25.410Z,83.21
2022-12-25T07:27:51.851Z,83.27
2022-12-25T07:30:18.342Z,83.20
2022-12-25T07:32:49.986Z,83.41
2022-12-25T07:35:16.817Z,83.14
2022-12-25T07:38:01.570Z,83.17
2022-12-25T07:40:28.183Z,83.36
2022-12-25T07:42:54.680Z,83.46
2022-12-25T07:45:21.233Z,83.68
2022-12-25T07:47:47.782Z,83.48
2022-12-25T07:50:14.274Z,83.45
2022-12-25T07:52:43.577Z,83.70
2022-12-25T07:55:10.638Z,83.89
2022-12-25T07:57:37.149Z,83.85
2022-12-25T08:00:04.422Z,83.25
2022-12-25T08:02:31.034Z,83.30
2022-12-25T08:04:57.716Z,83.12
2022-12-25T08:07:24.226Z,83.44
2022-12-25T08:09:51.703Z,83.03
2022-12-25T08:12:18.302Z,82.39
2022-12-25T08:14:44.751Z,82.27
2022-12-25T08:17:11.366Z,82.47
2022-12-25T08:19:37.983Z,82.25
2022-12-25T08:22:04.599Z,82.31
2022-12-25T08:24:31.044Z,82.49
2022-12-25T08:26:57.509Z,81.34
2022-12-25T08:29:24.005Z,81.75
2022-12-25T08:31:50.519Z,80.96
2022-12-25T08:34:16.969Z,81.29
2022-12-25T08:36:43.627Z,80.29
2022-12-25T08:39:10.161Z,79.94
2022-12-25T08:41:36.678Z,78.28
2022-12-25T08:44:03.682Z,78.10
2022-12-25T08:46:30.153Z,74.45
2022-12-25T08:48:56.989Z,73.39
2022-12-25T08:51:23.811Z,72.86
2022-12-25T08:53:50.748Z,71.18
2022-12-25T08:56:18.307Z,67.51
2022-12-25T08:58:45.018Z,65.20
2022-12-25T09:01:12.017Z,63.53
2022-12-25T09:03:38.745Z,62.79
2022-12-25T09:06:05.998Z,59.02
2022-12-25T09:08:32.518Z,58.33
2022-12-25T09:11:02.771Z,56.82
2022-12-25T09:13:29.223Z,56.46
2022-12-25T09:15:55.787Z,54.31
2022-12-25T09:18:22.358Z,51.59
2022-12-25T09:20:57.143Z,48.95
2022-12-25T09:23:23.587Z,47.43
2022-12-25T09:25:50.027Z,46.61
2022-12-25T09:28:16.562Z,45.99
2022-12-25T09:30:43.040Z,46.79
2022-12-25T09:33:09.755Z,45.92
2022-12-25T09:35:36.211Z,46.45
2022-12-25T09:38:02.787Z,48.55
2022-12-25T09:40:29.882Z,50.32
2022-12-25T09:42:56.341Z,51.86
2022-12-25T09:45:27.257Z,53.04
2022-12-25T09:47:55.497Z,54.75
2022-12-25T09:50:40.937Z,55.76
2022-12-25T09:53:21.370Z,56.40
2022-12-25T09:56:06.687Z,57.61
2022-12-25T09:58:33.258Z,58.71
2022-12-25T10:01:21.442Z,59.51
2022-12-25T10:04:19.977Z,61.16
2022-12-25T10:06:55.549Z,61.90
2022-12-25T10:09:35.039Z,62.34
2022-12-25T10:12:14.443Z,63.34
2022-12-25T10:14:43.137Z,64.32
2022-12-25T10:17:28.518Z,64.94
2022-12-25T10:20:04.230Z,65.53
2022-12-25T10:23:09.089Z,65.67
2022-12-25T10:25:35.836Z,66.05
2022-12-25T10:28:03.996Z,66.20
2022-12-25T10:30:31.676Z,66.66
2022-12-25T10:32:58.243Z,67.24
2022-12-25T10:35:25.869Z,68.25
2022-12-25T10:38:02.272Z,68.71
2022-12-25T10:40:29.105Z,68.78
2022-12-25T10:42:56.385Z,69.44
2022-12-25T10:45:23.000Z,69.80
2022-12-25T10:47:54.988Z,69.58
2022-12-25T10:50:26.079Z,69.67
2022-12-25T10:52:59.605Z,69.50
2022-12-25T10:55:29.070Z,69.95
2022-12-25T10:57:57.962Z,69.92
2022-12-25T11:00:25.838Z,70.81
2022-12-25T11:02:53.203Z,70.82
2022-12-25T11:05:28.389Z,70.75
2022-12-25T11:07:55.727Z,70.91
2022-12-25T11:10:24.158Z,71.09
2022-12-25T11:12:50.928Z,71.24
2022-12-25T11:15:34.893Z,72.32
2022-12-25T11:18:01.669Z,72.35
2022-12-25T11:20:28.299Z,73.02
2022-12-25T11:22:55.203Z,72.24
2022-12-25T11:25:26.047Z,72.14
2022-12-25T11:27:59.147Z,71.82
2022-12-25T11:30:26.014Z,71.94
2022-12-25T11:32:56.444Z,71.99
2022-12-25T11:35:46.879Z,72.56
2022-12-25T11:38:13.319Z,72.29
2022-12-25T11:40:49.567Z,72.46
2022-12-25T11:43:27.593Z,72.68
2022-12-25T11:45:55.130Z,73.21
2022-12-25T11:48:23.566Z,73.86
2022-12-25T11:50:51.465Z,74.09
2022-12-25T11:53:20.607Z,73.85
2022-12-25T11:55:56.820Z,73.42
2022-12-25T11:58:42.111Z,73.75
2022-12-25T12:01:09.379Z,73.75
2022-12-25T12:03:39.956Z,74.15
2022-12-25T12:06:12.820Z,74.00
2022-12-25T12:08:39.272Z,74.26
2022-12-25T12:11:16.268Z,74.05
2022-12-25T12:13:43.992Z,74.09
2022-12-25T12:16:10.555Z,73.95
2022-12-25T12:18:37.344Z,73.64
2022-12-25T12:21:07.551Z,74.07
2022-12-25T12:23:47.193Z,74.05
2022-12-25T12:26:18.325Z,74.41
2022-12-25T12:28:45.854Z,74.61
2022-12-25T12:31:12.461Z,74.55
2022-12-25T12:33:40.679Z,74.00
2022-12-25T12:36:07.236Z,74.35
2022-12-25T12:38:33.749Z,73.66
2022-12-25T12:41:07.345Z,73.84
2022-12-25T12:43:36.860Z,73.60
2022-12-25T12:46:24.508Z,73.62
2022-12-25T12:49:35.293Z,73.47
2022-12-25T12:52:10.505Z,73.43
2022-12-25T12:54:50.023Z,73.32
2022-12-25T12:57:24.340Z,73.67
2022-12-25T12:59:51.064Z,72.94
2022-12-25T13:02:21.070Z,72.17
2022-12-25T13:05:03.667Z,72.49
2022-12-25T13:07:33.552Z,72.83
2022-12-25T13:10:19.067Z,72.67
2022-12-25T13:12:47.292Z,72.95
2022-12-25T13:15:13.981Z,72.26
2022-12-25T13:17:48.845Z,71.47
2022-12-25T13:20:24.232Z,71.28
2022-12-25T13:22:52.905Z,71.44
2022-12-25T13:25:23.205Z,70.22
2022-12-25T13:27:56.402Z,70.33
2022-12-25T13:30:23.014Z,70.74
2022-12-25T13:32:49.682Z,69.84
2022-12-25T13:35:16.688Z,68.59
2022-12-25T13:37:49.275Z,69.59
2022-12-25T13:40:25.530Z,68.29
2022-12-25T13:42:52.688Z,68.48
2022-12-25T13:45:23.518Z,69.19
2022-12-25T13:47:55.262Z,69.08
2022-12-25T13:50:26.635Z,69.60
2022-12-25T13:52:53.475Z,69.04
2022-12-25T13:55:21.015Z,68.67
2022-12-25T13:57:54.423Z,69.17
2022-12-25T14:00:25.889Z,68.82
2022-12-25T14:02:52.545Z,68.95
2022-12-25T14:05:45.504Z,69.36
2022-12-25T14:08:13.280Z,69.54
2022-12-25T14:10:39.982Z,69.78
2022-12-25T14:13:07.678Z,69.95
2022-12-25T14:15:34.155Z,69.41
2022-12-25T14:18:00.628Z,69.71
2022-12-25T14:20:31.001Z,69.90
2022-12-25T14:22:57.993Z,70.03
2022-12-25T14:25:27.065Z,70.54
2022-12-25T14:27:53.783Z,70.19
2022-12-25T14:30:20.237Z,70.42
2022-12-25T14:32:47.850Z,71.20
2022-12-25T14:35:19.736Z,71.41
2022-12-25T14:37:50.442Z,71.88
2022-12-25T14:40:23.983Z,71.79
2022-12-25T14:43:00.632Z,72.15
2022-12-25T14:45:28.337Z,71.86
2022-12-25T14:47:55.386Z,71.90
2022-12-25T14:50:25.785Z,72.71
2022-12-25T14:52:52.427Z,72.83
2022-12-25T14:55:20.274Z,72.87
2022-12-25T14:57:47.762Z,72.82
2022-12-25T15:00:21.661Z,73.40
2022-12-25T15:02:48.454Z,73.09
2022-12-25T15:05:27.391Z,73.52
2022-12-25T15:08:03.251Z,74.20
2022-12-25T15:10:58.886Z,74.99
2022-12-25T15:13:19.183Z,75.56
2022-12-25T15:15:58.917Z,75.15
2022-12-25T15:18:26.317Z,74.80
2022-12-25T15:20:52.779Z,75.27
2022-12-25T15:23:20.480Z,76.99
2022-12-25T15:25:51.130Z,76.34
2022-12-25T15:28:17.616Z,76.73
2022-12-25T15:30:44.315Z,76.24
2022-12-25T15:33:13.014Z,76.67
2022-12-25T15:35:39.537Z,76.52
2022-12-25T15:38:05.981Z,76.62
2022-12-25T15:40:32.550Z,76.98
2022-12-25T15:42:59.851Z,76.95
2022-12-25T15:45:27.234Z,77.08
2022-12-25T15:47:53.725Z,76.62
2022-12-25T15:50:20.387Z,76.61
2022-12-25T15:52:47.117Z,77.04
2022-12-25T15:55:13.713Z,77.36
2022-12-25T15:57:40.749Z,77.99
2022-12-25T16:00:07.752Z,77.58
2022-12-25T16:02:34.309Z,78.41
2022-12-25T16:05:05.390Z,77.78
2022-12-25T16:07:36.616Z,78.57
2022-12-25T16:10:03.582Z,79.03
2022-12-25T16:12:30.049Z,79.95
2022-12-25T16:14:56.781Z,80.27
2022-12-25T16:17:23.197Z,80.26
2022-12-25T16:19:49.795Z,79.43
2022-12-25T16:22:23.772Z,79.21
2022-12-25T16:24:50.205Z,79.92
2022-12-25T16:27:16.700Z,79.38
2022-12-25T16:29:43.291Z,80.18
2022-12-25T16:32:10.734Z,80.49
2022-12-25T16:34:37.178Z,81.39
2022-12-25T16:37:03.801Z,82.40
2022-12-25T16:39:30.240Z,81.98
2022-12-25T16:41:56.772Z,82.68
2022-12-25T16:44:23.248Z,82.73
2022-12-25T16:46:49.718Z,82.97
2022-12-25T16:49:16.234Z,82.04
2022-12-25T16:51:42.741Z,82.22
2022-12-25T16:54:09.173Z,82.10
2022-12-25T16:56:36.717Z,81.29
2022-12-25T16:59:03.334Z,81.29
2022-12-25T17:01:30.092Z,81.85
2022-12-25T17:03:58.512Z,81.74
2022-12-25T17:06:25.634Z,80.70
2022-12-25T17:08:52.676Z,80.59
2022-12-25T17:11:27.301Z,79.93
2022-12-25T17:13:54.227Z,78.75
2022-12-25T17:16:22.964Z,79.39
2022-12-25T17:18:52.831Z,78.74
2022-12-25T17:21:19.339Z,78.67
2022-12-25T17:23:45.931Z,78.53
2022-12-25T17:26:12.380Z,78.08
2022-12-25T17:28:38.929Z,78.53
2022-12-25T17:31:06.076Z,77.90
2022-12-25T17:33:33.823Z,77.28
2022-12-25T17:36:04.225Z,77.22
2022-12-25T17:38:31.150Z,76.48
2022-12-25T17:40:58.072Z,76.34
2022-12-25T17:43:24.653Z,75.72
2022-12-25T17:45:51.214Z,75.88
2022-12-25T17:48:17.724Z,76.60
2022-12-25T17:50:44.506Z,76.44
2022-12-25T17:53:11.327Z,76.52
2022-12-25T17:55:38.914Z,76.01
2022-12-25T17:58:05.443Z,76.46
2022-12-25T18:00:31.882Z,76.34
2022-12-25T18:02:58.781Z,76.01
2022-12-25T18:05:25.345Z,76.34
2022-12-25T18:07:51.958Z,76.42
2022-12-25T18:10:18.390Z,76.43
2022-12-25T18:12:44.899Z,76.20
2022-12-25T18:15:11.673Z,76.56
2022-12-25T18:17:38.356Z,76.07
2022-12-25T18:20:05.700Z,75.89
2022-12-25T18:22:33.475Z,75.27
2022-12-25T18:24:59.923Z,75.45
2022-12-25T18:27:26.868Z,75.04
2022-12-25T18:29:53.512Z,74.92
2022-12-25T18:32:23.390Z,74.28
2022-12-25T18:34:54.589Z,74.23
2022-12-25T18:37:21.110Z,74.21
2022-12-25T18:39:47.823Z,73.80
2022-12-25T18:42:32.994Z,73.78
2022-12-25T18:44:59.574Z,73.82
2022-12-25T18:47:26.068Z,73.46
2022-12-25T18:49:53.418Z,73.78
2022-12-25T18:52:49.021Z,73.37
2022-12-25T18:55:06.632Z,73.18
2022-12-25T18:57:33.239Z,73.16
2022-12-25T19:00:00.314Z,72.85
2022-12-25T19:02:27.132Z,72.72
2022-12-25T19:04:54.180Z,71.86
2022-12-25T19:07:22.687Z,71.10
2022-12-25T19:09:49.661Z,71.39
2022-12-25T19:12:17.794Z,71.31
2022-12-25T19:14:47.641Z,71.48
2022-12-25T19:17:15.033Z,71.50
2022-12-25T19:19:41.816Z,71.17
2022-12-25T19:22:08.363Z,71.20
2022-12-25T19:24:34.999Z,71.34
2022-12-25T19:27:01.437Z,72.03
2022-12-25T19:29:27.907Z,72.05
2022-12-25T19:31:54.493Z,72.19
2022-12-25T19:34:21.365Z,71.67
2022-12-25T19:36:47.835Z,72.27
2022-12-25T19:39:14.507Z,72.33
2022-12-25T19:41:41.148Z,71.90
2022-12-25T19:44:07.694Z,71.91
2022-12-25T19:46:35.005Z,72.28
2022-12-25T19:49:04.597Z,72.16
2022-12-25T19:51:33.064Z,72.11
2022-12-25T19:53:59.634Z,71.70
2022-12-25T19:56:26.461Z,71.81
2022-12-25T19:58:53.037Z,72.29
2022-12-25T20:01:20.458Z,71.73
2022-12-25T20:03:47.258Z,71.66
2022-12-25T20:06:22.008Z,71.61
2022-12-25T20:08:49.378Z,71.70
2022-12-25T20:11:16.295Z,71.80
2022-12-25T20:13:42.880Z,72.42
2022-12-25T20:16:10.245Z,72.37
2022-12-25T20:18:37.357Z,72.09
2022-12-25T20:21:05.575Z,72.55
2022-12-25T20:23:32.025Z,72.75
2022-12-25T20:26:00.947Z,72.65
2022-12-25T20:28:28.108Z,72.81
2022-12-25T20:30:55.146Z,73.35
2022-12-25T20:33:21.709Z,73.11
2022-12-25T20:35:48.305Z,73.09
2022-12-25T20:38:15.060Z,73.38
2022-12-25T20:41:16.327Z,73.04
2022-12-25T20:43:28.353Z,73.17
2022-12-25T20:45:56.939Z,73.08
2022-12-25T20:48:23.574Z,73.21
2022-12-25T20:50:50.209Z,72.73
2022-12-25T20:53:16.876Z,73.02
2022-12-25T20:55:46.784Z,73.19
2022-12-25T20:58:16.764Z,72.83
2022-12-25T21:00:43.633Z,72.76
2022-12-25T21:03:10.520Z,73.01
2022-12-25T21:05:49.719Z,73.62
2022-12-25T21:08:17.170Z,73.49
2022-12-25T21:10:44.182Z,73.27
2022-12-25T21:13:10.743Z,73.31
2022-12-25T21:15:37.237Z,73.57
2022-12-25T21:18:04.040Z,73.71
2022-12-25T21:20:30.485Z,73.62
2022-12-25T21:22:57.090Z,73.68
2022-12-25T21:25:23.602Z,73.35
2022-12-25T21:27:50.227Z,73.22
2022-12-25T21:30:16.824Z,73.34
2022-12-25T21:33:02.124Z,73.92
2022-12-25T21:35:28.608Z,73.73
2022-12-25T21:37:55.076Z,73.76
2022-12-25T21:40:21.545Z,73.29
2022-12-25T21:42:48.219Z,73.30
2022-12-25T21:45:14.663Z,73.34
2022-12-25T21:48:01.661Z,73.36
2022-12-25T21:50:46.200Z,73.50
2022-12-25T21:53:16.122Z,73.44
2022-12-25T21:55:42.743Z,73.98
2022-12-25T21:58:09.178Z,73.42
2022-12-25T22:00:35.907Z,73.68
2022-12-25T22:03:02.526Z,73.81
2022-12-25T22:05:47.724Z,73.80
2022-12-25T22:08:14.202Z,73.77
2022-12-25T22:10:40.840Z,73.92
2022-12-25T22:13:27.182Z,73.64
2022-12-25T22:16:12.494Z,74.30
2022-12-25T22:18:57.420Z,73.71
2022-12-25T22:21:24.058Z,73.65
2022-12-25T22:23:50.574Z,73.97
2022-12-25T22:26:20.802Z,73.78
2022-12-25T22:28:47.664Z,73.70
2022-12-25T22:31:14.355Z,73.81
2022-12-25T22:33:40.929Z,73.72
2022-12-25T22:36:07.862Z,73.68
2022-12-25T22:38:34.805Z,73.17
2022-12-25T22:41:05.206Z,73.63
2022-12-25T22:44:06.241Z,73.27
2022-12-25T22:46:18.203Z,73.30
2022-12-25T22:48:44.669Z,73.79
2022-12-25T22:51:11.101Z,73.37
2022-12-25T22:53:37.594Z,73.62
2022-12-25T22:56:04.090Z,73.03
2022-12-25T22:58:30.589Z,73.23
2022-12-25T23:00:57.095Z,73.27
2022-12-25T23:03:23.707Z,74.14
2022-12-25T23:05:54.010Z,74.25
2022-12-25T23:08:20.793Z,73.69
2022-12-25T23:10:47.254Z,74.34
2022-12-25T23:13:32.444Z,74.41
2022-12-25T23:15:58.948Z,74.04
2022-12-25T23:18:43.732Z,74.73
2022-12-25T23:21:31.968Z,75.06
2022-12-25T23:24:17.085Z,74.91
2022-12-25T23:26:44.075Z,75.27
2022-12-25T23:29:29.013Z,75.18
2022-12-25T23:31:55.471Z,74.93
2022-12-25T23:34:21.923Z,74.63
2022-12-25T23:36:48.468Z,75.16
2022-12-25T23:39:14.934Z,75.09
2022-12-25T23:41:41.805Z,75.47
2022-12-25T23:44:08.745Z,75.21
2022-12-25T23:46:35.231Z,75.18
2022-12-25T23:49:01.926Z,75.09
2022-12-25T23:51:28.556Z,75.63
2022-12-25T23:53:55.099Z,75.86
2022-12-25T23:56:21.709Z,75.53
2022-12-25T23:58:54.376Z,75.73
